Jackpot, Nevada
Current Conditions -  °F | °C
As of 5:53 PM on Friday 28 Nov 2014 (Local Time) from KTWF Reporting Station
Overcast Overcast  
Wind Chill: 56°   Ceiling: 12000
Heat Index: 56°   Visibility: 10mi
Dew Point: 17°   Wind: 15mph
Humidity: 22%   Direction: 190°S
Pressure: 29.71"   Gusts: NA
Location:  41.98°N, 114.68°W
Report Text: KTWF 290153Z 19013KT 10SM OVC120 13/M08 A2971 RMK AO2 SLP025 T01331083
Loading
Personal Weather Stations






























Interactive Weather Map New forecast layout! Learn more

10-Day Weather Forecast

Advertisements
Track Severe Weather on mobile